Time;durP1;ratioP1;P1;durP2;ratioP2;P2;SDS_P1;SDS_P2;PMS_P1;PMS_P2;Temp;Humidity;BMP_temperature;BMP_pressure;BME280_temperature;BME280_humidity;BME280_pressure;Samples;Min_cycle;Max_cycle;Signal;HPM_P1;HPM_P2
2022/03/24 00:01:46;;;;;;;27.52;18.00;;;;;;;;;;5087605;28;20042;-60
2022/03/24 00:04:12;;;;;;;30.85;18.45;;;;;;;;;;5090944;28;20047;-60
2022/03/24 00:06:38;;;;;;;27.25;18.83;;;;;;;;;;5087517;28;20093;-60
2022/03/24 00:09:04;;;;;;;31.90;19.15;;;;;;;;;;5080423;28;20055;-61
2022/03/24 00:11:31;;;;;;;29.08;18.95;;;;;;;;;;5092117;28;20054;-60
2022/03/24 00:13:57;;;;;;;27.02;18.52;;;;;;;;;;5086600;28;20160;-60
2022/03/24 00:16:23;;;;;;;30.98;18.42;;;;;;;;;;5085902;28;20141;-61
2022/03/24 00:18:50;;;;;;;30.30;18.52;;;;;;;;;;5089523;28;20061;-61
2022/03/24 00:21:16;;;;;;;28.67;17.67;;;;;;;;;;5089319;28;20036;-60
2022/03/24 00:23:45;;;;;;;26.95;18.05;;;;;;;;;;5087303;28;20035;-61
2022/03/24 00:26:12;;;;;;;26.90;17.65;;;;;;;;;;5091716;28;20039;-60
2022/03/24 00:28:38;;;;;;;28.98;16.92;;;;;;;;;;5086672;28;20420;-62
2022/03/24 00:31:05;;;;;;;28.73;18.08;;;;;;;;;;5089837;28;20514;-60
2022/03/24 00:33:32;;;;;;;24.10;16.65;;;;;;;;;;5085138;28;20044;-62
2022/03/24 00:35:58;;;;;;;26.10;16.92;;;;;;;;;;5090418;28;20505;-61
2022/03/24 00:38:24;;;;;;;26.92;16.13;;;;;;;;;;5086003;28;20028;-60
2022/03/24 00:40:51;;;;;;;29.20;17.88;;;;;;;;;;5092021;28;20032;-61
2022/03/24 00:43:17;;;;;;;25.73;16.35;;;;;;;;;;5088398;28;20498;-61
2022/03/24 00:45:43;;;;;;;29.48;16.02;;;;;;;;;;5091325;28;20390;-61
2022/03/24 00:48:10;;;;;;;23.92;15.45;;;;;;;;;;5085714;28;20173;-60
2022/03/24 00:50:36;;;;;;;25.38;15.93;;;;;;;;;;5091809;28;20085;-60
2022/03/24 00:53:04;;;;;;;28.25;16.90;;;;;;;;;;5088864;28;20039;-60
2022/03/24 00:55:30;;;;;;;25.27;15.60;;;;;;;;;;5091240;28;20126;-61
2022/03/24 00:57:56;;;;;;;26.15;16.50;;;;;;;;;;5088145;28;20036;-61
2022/03/24 01:00:25;;;;;;;26.38;16.02;;;;;;;;;;5084195;28;20079;-60
2022/03/24 01:02:52;;;;;;;24.75;15.38;;;;;;;;;;5089365;28;20036;-61
2022/03/24 01:05:18;;;;;;;29.27;16.98;;;;;;;;;;5088226;28;20032;-62
2022/03/24 01:07:45;;;;;;;28.42;17.50;;;;;;;;;;5089882;28;20044;-61
2022/03/24 01:10:12;;;;;;;23.67;16.90;;;;;;;;;;5081766;28;20089;-60
2022/03/24 01:12:41;;;;;;;29.92;16.60;;;;;;;;;;5089003;28;20501;-60
2022/03/24 01:15:12;;;;;;;26.75;16.77;;;5.50;99.90;;;;;;5088888;28;20515;-60
2022/03/24 01:17:38;;;;;;;25.27;15.90;;;;;;;;;;5089297;28;20040;-60
2022/03/24 01:20:05;;;;;;;27.48;17.77;;;;;;;;;;5082987;28;20876;-61
2022/03/24 01:22:31;;;;;;;28.55;18.20;;;;;;;;;;5090813;28;20494;-61
2022/03/24 01:24:58;;;;;;;28.67;17.48;;;;;;;;;;5086124;28;20145;-62
2022/03/24 01:27:26;;;;;;;34.38;18.27;;;;;;;;;;5084536;28;20577;-61
2022/03/24 01:29:54;;;;;;;27.05;17.30;;;;;;;;;;5088627;28;20069;-60
2022/03/24 01:32:20;;;;;;;25.55;16.27;;;;;;;;;;5085623;28;20123;-60
2022/03/24 01:34:46;;;;;;;26.48;17.83;;;;;;;;;;5080645;28;20647;-61
2022/03/24 01:37:12;;;;;;;27.77;17.83;;;;;;;;;;5077896;28;20177;-60
2022/03/24 01:39:38;;;;;;;25.05;16.27;;;;;;;;;;5080103;28;20169;-61
2022/03/24 01:42:05;;;;;;;29.95;16.65;;;;;;;;;;5089526;28;20036;-60
2022/03/24 01:44:31;;;;;;;28.92;17.60;;;;;;;;;;5087363;28;20371;-60
2022/03/24 01:47:02;;;;;;;28.05;17.85;;;;;;;;;;5088711;28;20078;-60
2022/03/24 01:49:32;;;;;;;30.60;18.38;;;;;;;;;;5087766;28;20570;-60
2022/03/24 01:51:59;;;;;;;28.52;18.98;;;;;;;;;;5088731;28;20121;-60
2022/03/24 01:54:29;;;;;;;34.15;19.50;;;5.20;99.90;;;;;;5086440;28;20044;-61
2022/03/24 01:56:55;;;;;;;29.85;18.60;;;;;;;;;;5087254;28;20390;-60
2022/03/24 01:59:22;;;;;;;26.98;18.02;;;;;;;;;;5081645;28;20050;-60
2022/03/24 02:01:48;;;;;;;29.65;18.60;;;;;;;;;;5086320;28;20036;-60
2022/03/24 02:04:15;;;;;;;33.70;19.88;;;;;;;;;;5083744;28;20042;-60
2022/03/24 02:06:41;;;;;;;29.73;19.13;;;;;;;;;;5087727;28;20032;-60
2022/03/24 02:09:08;;;;;;;31.55;19.30;;;;;;;;;;5084857;28;20109;-60
2022/03/24 02:11:35;;;;;;;28.70;18.83;;;;;;;;;;5081882;28;20044;-61
2022/03/24 02:14:01;;;;;;;29.00;17.95;;;;;;;;;;5085979;28;20044;-61
2022/03/24 02:16:34;;;;;;;32.60;18.58;;;;;;;;;;5085856;28;20143;-60
2022/03/24 02:19:15;;;;;;;28.95;18.13;;;;;;;;;;5088078;28;20436;-60
2022/03/24 02:21:42;;;;;;;30.75;18.80;;;;;;;;;;5085915;28;20040;-60
2022/03/24 02:24:08;;;;;;;29.73;18.40;;;;;;;;;;5085173;28;20075;-60
2022/03/24 02:26:35;;;;;;;30.80;18.55;;;;;;;;;;5084123;28;20081;-61
2022/03/24 02:29:06;;;;;;;32.47;19.10;;;;;;;;;;5088168;28;20103;-60
2022/03/24 02:31:33;;;;;;;29.70;18.58;;;;;;;;;;5085775;28;20043;-60
2022/03/24 02:36:43;;;;;;;29.70;18.67;;;;;;;;;;5085739;28;20044;-61
2022/03/24 02:39:10;;;;;;;39.25;19.80;;;;;;;;;;5084602;28;20032;-61
2022/03/24 02:41:45;;;;;;;32.97;19.75;;;;;;;;;;5085015;28;20115;-61
2022/03/24 02:44:14;;;;;;;34.70;19.50;;;;;;;;;;5083935;28;20093;-60
2022/03/24 02:46:42;;;;;;;30.75;18.75;;;;;;;;;;5086102;28;20047;-60
2022/03/24 02:49:09;;;;;;;33.53;18.88;;;;;;;;;;5086938;28;20044;-60
2022/03/24 02:51:36;;;;;;;30.90;19.17;;;;;;;;;;5087008;28;20036;-60
2022/03/24 02:54:03;;;;;;;30.73;19.80;;;;;;;;;;5084979;28;20078;-61
2022/03/24 02:56:30;;;;;;;28.77;18.40;;;;;;;;;;5086040;28;20502;-60
2022/03/24 02:58:56;;;;;;;29.88;19.25;;;;;;;;;;5088389;28;20044;-60
2022/03/24 03:01:25;;;;;;;29.55;19.23;;;;;;;;;;5084431;28;20036;-60
2022/03/24 03:03:54;;;;;;;31.30;19.63;;;;;;;;;;5088054;28;20482;-63
2022/03/24 03:06:20;;;;;;;28.38;17.85;;;;;;;;;;5086594;28;20078;-60
2022/03/24 03:08:47;;;;;;;28.90;18.30;;;;;;;;;;5086337;28;20472;-60
2022/03/24 03:11:13;;;;;;;34.17;19.60;;;;;;;;;;5086209;28;20096;-60
2022/03/24 03:13:39;;;;;;;28.23;18.63;;;;;;;;;;5086169;28;20553;-60
2022/03/24 03:16:05;;;;;;;31.88;18.13;;;;;;;;;;5085848;28;20044;-60
2022/03/24 03:18:32;;;;;;;32.88;21.05;;;;;;;;;;5084449;28;20072;-61
2022/03/24 03:20:59;;;;;;;32.33;19.38;;;;;;;;;;5087744;28;20435;-60
2022/03/24 03:23:25;;;;;;;32.92;19.23;;;;;;;;;;5088658;28;20036;-61
2022/03/24 03:25:51;;;;;;;30.55;18.00;;;;;;;;;;5090423;28;20028;-60
2022/03/24 03:28:18;;;;;;;32.00;18.30;;;;;;;;;;5088897;28;20081;-60
2022/03/24 03:30:44;;;;;;;28.33;18.02;;;;;;;;;;5090109;28;20456;-60
2022/03/24 03:33:10;;;;;;;26.02;16.92;;;;;;;;;;5092473;28;20127;-60
2022/03/24 03:35:37;;;;;;;29.13;17.02;;;;;;;;;;5090054;28;20044;-60
2022/03/24 03:38:03;;;;;;;33.55;18.95;;;;;;;;;;5088636;28;20039;-60
2022/03/24 03:40:30;;;;;;;30.73;19.33;;;;;;;;;;5092521;28;20040;-60
2022/03/24 03:42:56;;;;;;;28.35;18.73;;;;;;;;;;5089618;28;20032;-60
2022/03/24 03:45:22;;;;;;;32.75;18.95;;;;;;;;;;5092287;28;20070;-60
2022/03/24 03:47:48;;;;;;;28.58;18.13;;;;;;;;;;5089290;28;20051;-60
2022/03/24 03:50:15;;;;;;;32.30;20.00;;;;;;;;;;5086906;28;20040;-61
2022/03/24 03:52:41;;;;;;;30.13;19.67;;;;;;;;;;5083830;28;20055;-60
2022/03/24 03:55:07;;;;;;;40.03;19.58;;;;;;;;;;5083521;28;20082;-61
2022/03/24 03:57:33;;;;;;;33.88;20.58;;;;;;;;;;5085968;28;20036;-60
2022/03/24 04:00:52;;;;;;;36.25;20.13;;;;;;;;;;5086434;28;20471;-61
2022/03/24 04:02:48;;;;;;;36.78;19.50;;;;;;;;;;5086927;28;20082;-60
2022/03/24 04:05:14;;;;;;;34.05;20.17;;;;;;;;;;5089170;28;20449;-60
2022/03/24 04:07:40;;;;;;;31.17;19.08;;;;;;;;;;5089823;28;20105;-61
2022/03/24 04:10:07;;;;;;;28.48;18.25;;;;;;;;;;5087654;28;20047;-60
2022/03/24 04:12:34;;;;;;;39.45;19.17;;;;;;;;;;5090161;28;20445;-59
2022/03/24 04:15:00;;;;;;;31.35;19.23;;;;;;;;;;5087669;28;20038;-61
2022/03/24 04:17:27;;;;;;;32.58;19.50;;;;;;;;;;5090096;28;20494;-60
2022/03/24 04:19:53;;;;;;;30.55;19.67;;;;;;;;;;5087684;28;20079;-60
2022/03/24 04:22:19;;;;;;;33.38;18.90;;;;;;;;;;5090918;28;20062;-59
2022/03/24 04:24:45;;;;;;;34.10;20.20;;;;;;;;;;5088253;28;20036;-60
2022/03/24 04:27:12;;;;;;;30.98;18.80;;;;;;;;;;5089361;28;20371;-61
2022/03/24 04:29:38;;;;;;;32.15;19.33;;;;;;;;;;5089980;28;20055;-61
2022/03/24 04:32:05;;;;;;;33.65;20.85;;;;;;;;;;5089557;28;20039;-61
2022/03/24 04:34:31;;;;;;;34.92;19.48;;;;;;;;;;5089818;28;20040;-61
2022/03/24 04:36:57;;;;;;;31.33;19.20;;;;;;;;;;5088983;28;20123;-60
2022/03/24 04:39:23;;;;;;;30.83;19.30;;;;;;;;;;5090010;28;20036;-61
2022/03/24 04:41:49;;;;;;;32.17;20.10;;;;;;;;;;5090626;28;20044;-59
2022/03/24 04:44:15;;;;;;;27.33;17.95;;;;;;;;;;5090220;28;20044;-60
2022/03/24 04:46:43;;;;;;;29.10;17.83;;;;;;;;;;5089691;28;20052;-60
2022/03/24 04:49:09;;;;;;;37.30;20.08;;;;;;;;;;5089182;28;20093;-61
2022/03/24 04:51:36;;;;;;;30.88;19.00;;;;;;;;;;5091947;28;20040;-61
2022/03/24 04:54:02;;;;;;;35.10;18.38;;;;;;;;;;5086743;28;20516;-60
2022/03/24 04:56:29;;;;;;;33.53;18.92;;;;;;;;;;5089046;28;20129;-60
2022/03/24 04:58:55;;;;;;;30.88;18.63;;;;;;;;;;5088320;28;20028;-60
2022/03/24 05:01:21;;;;;;;32.85;20.63;;;;;;;;;;5084208;28;20508;-60
2022/03/24 05:03:47;;;;;;;29.42;18.48;;;;;;;;;;5087930;28;20044;-61
2022/03/24 05:06:14;;;;;;;31.00;18.85;;;;;;;;;;5090273;28;20043;-60
2022/03/24 05:08:40;;;;;;;32.58;19.23;;;;;;;;;;5085585;28;20052;-60
2022/03/24 05:11:06;;;;;;;34.00;19.80;;;;;;;;;;5088137;28;20482;-60
2022/03/24 05:13:32;;;;;;;30.88;19.25;;;;;;;;;;5099559;28;20044;-60
2022/03/24 05:15:58;;;;;;;32.75;19.85;;;;;;;;;;5088109;28;20043;-60
2022/03/24 05:18:24;;;;;;;34.15;20.92;;;;;;;;;;5085105;28;20058;-60
2022/03/24 05:20:50;;;;;;;37.58;21.00;;;;;;;;;;5088277;28;20055;-60
2022/03/24 05:23:16;;;;;;;44.20;22.20;;;;;;;;;;5091292;28;20085;-60
2022/03/24 05:25:44;;;;;;;33.72;20.50;;;;;;;;;;5085308;28;20089;-60
2022/03/24 05:28:10;;;;;;;33.95;20.58;;;;;;;;;;5089159;28;20050;-60
2022/03/24 05:30:36;;;;;;;32.72;20.52;;;;;;;;;;5089314;28;20043;-60
2022/03/24 05:33:03;;;;;;;35.60;20.40;;;;;;;;;;5087997;28;20032;-59
2022/03/24 05:35:32;;;;;;;39.58;21.73;;;;;;;;;;5079406;28;21208;-60
2022/03/24 05:37:58;;;;;;;33.55;20.23;;;;;;;;;;5076134;28;20044;-60
2022/03/24 05:40:24;;;;;;;36.67;21.83;;;;;;;;;;5082037;28;20085;-60
2022/03/24 05:42:50;;;;;;;36.75;21.58;;;;;;;;;;5090988;28;20036;-60
2022/03/24 05:45:16;;;;;;;31.77;19.80;;;;;;;;;;5084158;28;20438;-60
2022/03/24 05:47:42;;;;;;;41.35;21.55;;;;;;;;;;5083093;28;20040;-60
2022/03/24 05:50:09;;;;;;;37.28;21.23;;;;;;;;;;5088013;28;20040;-61
2022/03/24 05:52:35;;;;;;;38.45;21.75;;;;;;;;;;5090376;28;20059;-60
2022/03/24 05:55:01;;;;;;;39.63;21.55;;;;;;;;;;5086516;28;20125;-61
2022/03/24 05:57:27;;;;;;;51.40;21.05;;;;;;;;;;5090232;28;20036;-61
2022/03/24 05:59:53;;;;;;;37.70;22.17;;;;;;;;;;5086082;28;20036;-61
2022/03/24 06:02:20;;;;;;;41.38;22.55;;;;;;;;;;5087776;28;20098;-61
2022/03/24 06:04:47;;;;;;;35.65;21.58;;;;;;;;;;5087446;28;20482;-61
2022/03/24 06:07:17;;;;;;;37.03;21.95;;;;;;;;;;5086849;28;20047;-61
2022/03/24 06:09:45;;;;;;;34.80;20.63;;;;;;;;;;5087459;28;20059;-61
2022/03/24 06:12:12;;;;;;;36.97;20.27;;;;;;;;;;5086715;28;20043;-61
2022/03/24 06:14:40;;;;;;;34.17;21.75;;;;;;;;;;5090103;28;20563;-61
2022/03/24 06:17:06;;;;;;;37.83;21.60;;;;;;;;;;5083696;28;20087;-61
2022/03/24 06:19:35;;;;;;;34.08;21.45;;;;;;;;;;5079432;28;20047;-61
2022/03/24 06:22:01;;;;;;;33.90;21.55;;;;;;;;;;5087281;28;20089;-61
2022/03/24 06:24:27;;;;;;;32.00;21.77;;;;;;;;;;5085647;28;20043;-61
2022/03/24 06:26:53;;;;;;;35.70;22.33;;;;;;;;;;5088070;28;20051;-61
2022/03/24 06:29:19;;;;;;;40.97;22.23;;;;;;;;;;5087614;28;20047;-61
2022/03/24 06:31:45;;;;;;;36.33;22.73;;;;;;;;;;5089002;28;20494;-61
2022/03/24 06:34:11;;;;;;;35.33;22.38;;;;;;;;;;5086432;28;20127;-62
2022/03/24 06:36:38;;;;;;;43.90;24.35;;;;;;;;;;5087965;28;20044;-61
2022/03/24 06:39:04;;;;;;;42.13;23.02;;;;;;;;;;5088508;28;20084;-61
2022/03/24 06:41:30;;;;;;;40.13;23.48;;;;;;;;;;5088577;28;20043;-61
2022/03/24 06:43:57;;;;;;;36.65;24.27;;;;;;;;;;5087672;28;20036;-61
2022/03/24 06:46:25;;;;;;;41.97;24.50;;;;;;;;;;5086703;28;20394;-61
2022/03/24 06:48:51;;;;;;;43.55;26.20;;;;;;;;;;5085476;28;20389;-61
2022/03/24 06:51:18;;;;;;;45.15;26.40;;;;;;;;;;5083092;28;20126;-61
2022/03/24 06:53:44;;;;;;;37.95;23.90;;;;;;;;;;5084911;28;20047;-61
2022/03/24 06:56:10;;;;;;;39.13;24.65;;;;;;;;;;5089997;28;20036;-61
2022/03/24 06:58:36;;;;;;;36.42;24.50;;;;;;;;;;5092946;28;20044;-61
2022/03/24 07:01:03;;;;;;;40.63;24.83;;;;;;;;;;5094419;28;20120;-61
2022/03/24 07:03:29;;;;;;;50.95;27.45;;;;;;;;;;5094813;28;20044;-61
2022/03/24 07:05:55;;;;;;;44.00;27.52;;;;;;;;;;5094653;28;20331;-61
2022/03/24 07:08:23;;;;;;;38.83;24.42;;;;;;;;;;5094236;28;20059;-61
2022/03/24 07:10:49;;;;;;;38.90;25.17;;;;;;;;;;5094429;28;20136;-61
2022/03/24 07:13:16;;;;;;;37.65;25.08;;;;;;;;;;5094074;28;20142;-61
2022/03/24 07:15:42;;;;;;;40.20;25.02;;;;;;;;;;5094592;28;20047;-61
2022/03/24 07:18:08;;;;;;;39.20;25.25;;;;;;;;;;5094254;28;20039;-61
2022/03/24 07:20:35;;;;;;;39.67;25.92;;;;;;;;;;5094346;28;20028;-61
2022/03/24 07:23:03;;;;;;;42.40;26.73;;;;;;;;;;5094112;28;20042;-61
2022/03/24 07:25:30;;;;;;;52.03;31.38;;;;;;;;;;5094010;28;20050;-61
2022/03/24 07:27:56;;;;;;;50.42;30.65;;;;;;;;;;5094062;28;20036;-61
2022/03/24 07:30:22;;;;;;;46.72;31.67;;;;;;;;;;5093991;28;20032;-61
2022/03/24 07:32:48;;;;;;;47.42;30.92;;;;;;;;;;5094194;28;20093;-61
2022/03/24 07:35:14;;;;;;;49.67;32.30;;;;;;;;;;5093892;28;20043;-61
2022/03/24 07:37:41;;;;;;;49.70;32.45;;;;;;;;;;5093874;28;20096;-61
2022/03/24 07:40:09;;;;;;;50.50;31.73;;;;;;;;;;5093639;28;20067;-62
2022/03/24 07:42:35;;;;;;;52.15;33.90;;;;;;;;;;5093777;28;20055;-62
2022/03/24 07:45:01;;;;;;;53.17;33.65;;;;;;;;;;5094033;28;20032;-61
2022/03/24 07:47:28;;;;;;;52.13;31.45;;;;;;;;;;5093689;28;20129;-61
2022/03/24 07:49:54;;;;;;;51.58;34.30;;;;;;;;;;5093831;28;20036;-61
2022/03/24 07:52:20;;;;;;;50.28;32.65;;;;;;;;;;5093478;28;20050;-61
2022/03/24 07:54:57;;;;;;;53.42;33.63;;;;;;;;;;5093403;28;20040;-61
2022/03/24 07:57:27;;;;;;;51.28;34.08;;;;;;;;;;5093361;28;20097;-61
2022/03/24 07:59:53;;;;;;;53.67;35.38;;;;;;;;;;5093634;28;20489;-62
2022/03/24 08:02:19;;;;;;;50.55;32.38;;;;;;;;;;5093226;28;20089;-61
2022/03/24 08:04:46;;;;;;;53.97;34.92;;;;;;;;;;5093543;28;20040;-62
2022/03/24 08:07:12;;;;;;;51.78;32.33;;;;;;;;;;5093302;28;20032;-62
2022/03/24 08:09:38;;;;;;;53.05;31.92;;;;;;;;;;5092243;28;20560;-61
2022/03/24 08:12:04;;;;;;;45.90;30.10;;;;;;;;;;5093456;28;20499;-62
2022/03/24 08:14:30;;;;;;;44.20;30.52;;;;;;;;;;5092826;28;20047;-62
2022/03/24 08:16:56;;;;;;;49.30;32.15;;;;;;;;;;5093125;28;20040;-61
2022/03/24 08:19:22;;;;;;;48.03;32.35;;;;;;;;;;5093008;28;20039;-61
2022/03/24 08:21:49;;;;;;;59.03;33.42;;;;;;;;;;5092914;28;20371;-62
2022/03/24 08:24:15;;;;;;;44.22;31.15;;;;;;;;;;5092981;28;20035;-62
2022/03/24 08:26:41;;;;;;;50.25;32.65;;;;;;;;;;5093165;28;20043;-61
2022/03/24 08:29:07;;;;;;;50.10;31.27;;;;;;;;;;5093188;28;20047;-61
2022/03/24 08:31:33;;;;;;;52.38;34.17;;;;;;;;;;5092594;28;20048;-62
2022/03/24 08:33:59;;;;;;;49.25;31.38;;;;;;;;;;5092939;28;20454;-62
2022/03/24 08:36:25;;;;;;;47.22;31.60;;;;;;;;;;5092518;28;20050;-62
2022/03/24 08:38:52;;;;;;;53.75;32.25;;;;;;;;;;5092664;28;20055;-62
2022/03/24 08:41:18;;;;;;;49.20;32.00;;;;;;;;;;5092575;28;20036;-62
2022/03/24 08:43:44;;;;;;;48.85;33.88;;;;;;;;;;5092730;28;20036;-61
2022/03/24 08:46:10;;;;;;;49.63;32.42;;;;;;;;;;5092791;28;20031;-62
2022/03/24 08:48:36;;;;;;;48.90;32.90;;;;;;;;;;5092213;28;20054;-62
2022/03/24 08:51:03;;;;;;;47.25;31.25;;;;;;;;;;5092507;28;20119;-62
2022/03/24 08:53:29;;;;;;;45.47;32.05;;;;;;;;;;5092513;28;20386;-62
2022/03/24 08:55:55;;;;;;;45.17;29.73;;;;;;;;;;5092631;28;20031;-62
2022/03/24 08:58:21;;;;;;;50.55;32.35;;;;;;;;;;5090860;28;20040;-62
2022/03/24 09:00:48;;;;;;;46.40;29.17;;;13.70;99.90;;;;;;5092419;28;20036;-62
2022/03/24 09:03:14;;;;;;;41.83;29.25;;;;;;;;;;5092510;28;20040;-61
2022/03/24 09:05:41;;;;;;;49.45;29.85;;;;;;;;;;5091899;28;20044;-62
2022/03/24 09:08:07;;;;;;;45.40;29.27;;;;;;;;;;5092340;28;20134;-62
2022/03/24 09:10:33;;;;;;;46.80;29.73;;;;;;;;;;5091824;28;20149;-62
2022/03/24 09:12:59;;;;;;;45.58;28.98;;;;;;;;;;5090660;28;20047;-62
2022/03/24 09:15:26;;;;;;;43.40;30.23;;;;;;;;;;5091881;28;20054;-62
2022/03/24 09:17:52;;;;;;;46.65;29.58;;;;;;;;;;5091859;28;20070;-62
2022/03/24 09:20:19;;;;;;;42.13;28.92;;;;;;;;;;5092038;28;20135;-62
2022/03/24 09:22:46;;;;;;;44.83;28.80;;;;;;;;;;5091836;28;20040;-62
2022/03/24 09:25:14;;;;;;;45.08;29.30;;;;;;;;;;5092066;28;20036;-62
2022/03/24 09:27:40;;;;;;;46.45;28.25;;;;;;;;;;5091687;28;20052;-62
2022/03/24 09:30:07;;;;;;;45.22;27.30;;;;;;;;;;5091866;28;20127;-62
2022/03/24 09:32:33;;;;;;;43.92;28.10;;;;;;;;;;5091590;28;20040;-62
2022/03/24 09:34:59;;;;;;;42.80;28.67;;;;;;;;;;5091471;28;20086;-62
2022/03/24 09:37:25;;;;;;;47.78;29.60;;;;;;;;;;5091778;28;20075;-62
2022/03/24 09:39:51;;;;;;;42.13;28.08;;;;;;;;;;5091484;28;20090;-62
2022/03/24 09:42:18;;;;;;;42.15;28.73;;;;;;;;;;5091813;28;20115;-62
2022/03/24 09:44:45;;;;;;;46.30;28.08;;;16.60;99.90;;;;;;5091396;28;20487;-62
2022/03/24 09:47:12;;;;;;;40.72;27.90;;;;;;;;;;5091428;28;20177;-62
2022/03/24 09:49:40;;;;;;;40.97;28.15;;;;;;;;;;5091444;28;20044;-62
2022/03/24 09:52:06;;;;;;;40.50;27.17;;;;;;;;;;5091526;28;20147;-62
2022/03/24 09:54:32;;;;;;;41.08;28.98;;;;;;;;;;5091349;28;20066;-62
2022/03/24 09:57:03;;;;;;;40.97;26.33;;;;;;;;;;5091194;28;20040;-62
2022/03/24 09:59:29;;;;;;;41.88;28.05;;;;;;;;;;5091166;28;20044;-62
2022/03/24 10:01:55;;;;;;;45.67;28.48;;;;;;;;;;5090793;28;20040;-62
2022/03/24 10:04:21;;;;;;;41.92;27.63;;;;;;;;;;5091541;28;20180;-62
2022/03/24 10:06:59;;;;;;;39.80;27.65;;;;;;;;;;5089704;28;20062;-62
2022/03/24 10:09:44;;;;;;;40.80;26.30;;;18.50;99.90;;;;;;5091100;28;20679;-62
2022/03/24 10:12:19;;;;;;;39.00;26.38;;;;;;;;;;5091056;28;20051;-62
2022/03/24 10:14:45;;;;;;;44.83;27.42;;;;;;;;;;5090763;28;20044;-62
2022/03/24 10:17:12;;;;;;;38.33;26.77;;;;;;;;;;5091103;28;20036;-62
2022/03/24 10:19:38;;;;;;;39.17;27.05;;;;;;;;;;5090753;28;20040;-62
2022/03/24 10:22:08;;;;;;;41.95;26.08;;;;;;;;;;5090710;28;20036;-62
2022/03/24 10:24:39;;;;;;;38.80;25.88;;;;;;;;;;5090868;28;20052;-62
2022/03/24 10:27:05;;;;;;;42.25;25.42;;;;;;;;;;5090677;28;20501;-62
2022/03/24 10:29:33;;;;;;;32.47;23.45;;;20.00;99.90;;;;;;5091030;28;20038;-64
2022/03/24 10:32:14;;;;;;;37.35;23.33;;;19.90;99.90;;;;;;5090417;28;20549;-62
2022/03/24 10:34:43;;;;;;;30.97;18.17;;;20.40;99.90;;;;;;5090756;28;20044;-62
2022/03/24 10:37:09;;;;;;;35.75;19.88;;;;;;;;;;5090500;28;20054;-62
2022/03/24 10:39:37;;;;;;;35.15;20.67;;;20.90;99.90;;;;;;5090601;28;20036;-62
2022/03/24 10:42:11;;;;;;;32.70;17.48;;;;;;;;;;5090752;28;20066;-62
2022/03/24 10:44:37;;;;;;;25.55;15.82;;;;;;;;;;5090778;28;20494;-62
2022/03/24 10:47:03;;;;;;;27.15;17.42;;;;;;;;;;5090418;28;20035;-62
2022/03/24 10:49:30;;;;;;;26.33;17.20;;;;;;;;;;5090699;28;20036;-62
2022/03/24 10:51:56;;;;;;;27.02;15.98;;;;;;;;;;5090249;28;20044;-62
2022/03/24 10:54:38;;;;;;;24.42;14.18;;;22.10;95.00;;;;;;5090671;28;20067;-63
2022/03/24 10:57:07;;;;;;;22.95;13.82;;;;;;;;;;5090447;28;20048;-62
2022/03/24 10:59:41;;;;;;;30.80;15.35;;;22.50;93.40;;;;;;5090472;28;20139;-62
2022/03/24 11:02:08;;;;;;;28.23;15.43;;;22.60;92.80;;;;;;5090287;28;20478;-63
2022/03/24 11:04:34;;;;;;;24.02;11.23;;;;;;;;;;5090417;28;20028;-62
2022/03/24 11:07:00;;;;;;;23.33;15.25;;;;;;;;;;5090427;28;20098;-62
2022/03/24 11:09:28;;;;;;;25.17;15.93;;;;;;;;;;5090314;28;20540;-62
2022/03/24 11:12:22;;;;;;;26.13;14.20;;;23.10;90.90;;;;;;5090526;28;20043;-62
2022/03/24 11:14:51;;;;;;;27.10;14.30;;;;;;;;;;5090086;28;20044;-62
2022/03/24 11:17:18;;;;;;;26.20;14.57;;;23.40;87.40;;;;;;5090263;28;20123;-62
2022/03/24 11:20:10;;;;;;;25.73;15.27;;;23.30;86.60;;;;;;5090580;28;20032;-62
2022/03/24 11:22:37;;;;;;;27.75;15.40;;;23.30;86.20;;;;;;5008278;28;20781;-62
2022/03/24 11:25:04;;;;;;;23.80;14.88;;;;;;;;;;5008065;28;20164;-62
2022/03/24 11:27:31;;;;;;;26.58;15.85;;;;;;;;;;5007984;28;20245;-63
2022/03/24 11:29:57;;;;;;;19.13;11.45;;;;;;;;;;5008087;28;20048;-63
2022/03/24 11:32:23;;;;;;;23.08;12.93;;;23.70;92.10;;;;;;5008255;28;20041;-63
2022/03/24 11:34:51;;;;;;;22.92;13.55;;;24.00;86.40;;;;;;5008143;28;20107;-63
2022/03/24 11:37:17;;;;;;;20.45;13.93;;;;;;;;;;5007884;28;20119;-63
2022/03/24 11:40:01;;;;;;;22.70;14.10;;;;;;;;;;5008022;28;20058;-63
2022/03/24 11:42:27;;;;;;;21.88;12.57;;;24.20;90.90;;;;;;5008194;28;20042;-63
2022/03/24 11:45:04;;;;;;;22.52;13.95;;;;;;;;;;5009309;28;20212;-63
2022/03/24 11:47:49;;;;;;;20.20;14.40;;;24.20;82.60;;;;;;5011570;28;20061;-63
2022/03/24 11:50:17;;;;;;;22.40;13.88;;;;;;;;;;5011324;28;20042;-63
2022/03/24 11:52:44;;;;;;;22.33;13.98;;;;;;;;;;5011475;28;20127;-63
2022/03/24 11:55:15;;;;;;;23.92;14.45;;;24.20;83.20;;;;;;5011254;28;20034;-63
2022/03/24 11:57:41;;;;;;;22.92;14.13;;;24.00;90.70;;;;;;5011264;28;20052;-63
2022/03/24 12:00:13;;;;;;;23.90;14.18;;;24.20;79.40;;;;;;5066748;28;20047;-63
2022/03/24 12:03:00;;;;;;;22.48;14.30;;;;;;;;;;5092439;28;20158;-63
2022/03/24 12:05:47;;;;;;;24.02;14.88;;;;;;;;;;5093591;28;20122;-63
2022/03/24 12:08:13;;;;;;;22.83;15.02;;;;;;;;;;5093202;28;20154;-63
2022/03/24 12:10:38;;;;;;;25.92;15.10;;;24.70;90.40;;;;;;5093300;28;20062;-63
2022/03/24 12:13:16;;;;;;;23.05;14.77;;;24.00;78.00;;;;;;5093247;28;20036;-63
2022/03/24 12:15:42;;;;;;;22.85;14.57;;;23.90;90.90;;;;;;5093586;28;20438;-63
2022/03/24 12:18:08;;;;;;;22.92;14.70;;;;;;;;;;5093115;28;20074;-63
2022/03/24 12:20:46;;;;;;;27.92;14.52;;;24.30;83.60;;;;;;5093362;28;20119;-63
2022/03/24 12:23:12;;;;;;;20.38;14.23;;;24.20;91.50;;;;;;5093023;28;20086;-63
2022/03/24 12:25:38;;;;;;;22.35;14.63;;;;;;;;;;5091858;28;20475;-63
2022/03/24 12:28:08;;;;;;;22.67;12.95;;;23.70;81.40;;;;;;5093015;28;20093;-63
2022/03/24 12:31:00;;;;;;;20.85;13.73;;;23.60;81.60;;;;;;5091939;28;20152;-63
2022/03/24 12:33:33;;;;;;;20.80;13.70;;;23.40;84.10;;;;;;5092746;28;20087;-63
2022/03/24 12:35:59;;;;;;;19.02;12.90;;;23.20;91.60;;;;;;5093186;28;20093;-63
2022/03/24 12:38:31;;;;;;;21.23;12.68;;;;;;;;;;5092557;28;20036;-63
2022/03/24 12:41:03;;;;;;;20.80;13.63;;;;;;;;;;5092936;28;20119;-63
2022/03/24 12:43:37;;;;;;;19.20;12.82;;;23.30;91.70;;;;;;5092755;28;20060;-63
2022/03/24 12:46:19;;;;;;;21.92;13.50;;;;;;;;;;5092849;28;20090;-63
2022/03/24 12:48:45;;;;;;;21.37;15.27;;;;;;;;;;5092556;28;20044;-63
2022/03/24 12:51:23;;;;;;;24.60;14.60;;;23.80;83.90;;;;;;5092478;28;20765;-63
2022/03/24 12:54:19;;;;;;;24.48;14.70;;;24.00;83.80;;;;;;5092538;28;20036;-63
2022/03/24 12:56:46;;;;;;;21.20;14.88;;;;;;;;;;5085702;28;20119;-63
2022/03/24 12:59:12;;;;;;;20.35;14.98;;;;;;;;;;5092229;28;20491;-63
2022/03/24 13:01:39;;;;;;;26.50;15.95;;;24.60;90.40;;;;;;5092532;28;20040;-63
2022/03/24 13:04:09;;;;;;;24.90;16.90;;;25.50;82.20;;;;;;5092641;28;20036;-63
2022/03/24 13:06:36;;;;;;;26.00;17.48;;;26.10;90.80;;;;;;5092167;28;20078;-63
2022/03/24 13:09:18;;;;;;;29.52;18.55;;;;;;;;;;5092405;28;20044;-63
2022/03/24 13:11:52;;;;;;;22.23;16.88;;;;;;;;;;5092090;28;20036;-63
2022/03/24 13:14:19;;;;;;;24.08;18.38;;;;;;;;;;5092265;28;20440;-63
2022/03/24 13:16:58;;;;;;;26.88;19.58;;;;;;;;;;5091961;28;20040;-63
2022/03/24 13:19:25;;;;;;;33.17;19.10;;;;;;;;;;5091927;28;20047;-63
2022/03/24 13:21:50;;;;;;;32.95;19.15;;;27.50;88.60;;;;;;5091924;28;20098;-63
2022/03/24 13:24:23;;;;;;;28.65;19.40;;;27.80;77.00;;;;;;5091878;28;20137;-63
2022/03/24 13:27:01;;;;;;;24.17;17.92;;;;;;;;;;5092195;28;20082;-63
2022/03/24 13:29:37;;;;;;;26.27;18.13;;;;;;;;;;5091636;28;20044;-63
2022/03/24 13:32:10;;;;;;;25.75;18.05;;;;;;;;;;5092101;28;20036;-63
2022/03/24 13:34:36;;;;;;;28.67;18.45;;;26.30;86.90;;;;;;5091537;28;20043;-63
2022/03/24 13:37:15;;;;;;;27.90;17.83;;;;;;;;;;5090648;28;20039;-63
2022/03/24 13:39:49;;;;;;;27.00;18.85;;;;;;;;;;5091613;28;20454;-63
2022/03/24 13:42:15;;;;;;;26.42;17.92;;;;;;;;;;5091813;28;20451;-63
2022/03/24 13:44:44;;;;;;;23.70;18.23;;;25.60;88.60;;;;;;5091444;28;20040;-63
2022/03/24 13:47:10;;;;;;;24.08;17.85;;;25.40;88.60;;;;;;5091571;28;20107;-63
2022/03/24 13:49:37;;;;;;;24.55;17.83;;;;;;;;;;5091540;28;20134;-63
2022/03/24 13:52:03;;;;;;;24.95;16.55;;;23.90;83.90;;;;;;5091582;28;20078;-63
2022/03/24 13:54:29;;;;;;;24.77;16.88;;;;;;;;;;5090179;28;20486;-63
2022/03/24 13:56:56;;;;;;;25.55;17.92;;;;;;;;;;5091198;28;20052;-63
2022/03/24 13:59:31;;;;;;;26.92;18.65;;;22.20;83.60;;;;;;5091406;28;20065;-63
2022/03/24 14:01:58;;;;;;;26.00;18.58;;;21.80;91.90;;;;;;5090248;28;20028;-63
2022/03/24 14:04:25;;;;;;;26.60;16.73;;;;;;;;;;5091265;28;20034;-63
2022/03/24 14:07:07;;;;;;;27.73;17.38;;;21.00;86.70;;;;;;5090934;28;20044;-63
2022/03/24 14:09:33;;;;;;;;;;;;;;;;;;5091632;28;20460;-63